createdAt,value
2019-04-27T00:02:28.493Z,99.90
2019-04-27T00:05:35.318Z,99.90
2019-04-27T00:08:38.802Z,99.90
2019-04-27T00:11:23.015Z,99.90
2019-04-27T00:14:01.477Z,99.90
2019-04-27T00:17:21.123Z,99.90
2019-04-27T00:20:13.070Z,99.90
2019-04-27T00:23:03.808Z,99.90
2019-04-27T00:25:43.698Z,99.90
2019-04-27T00:28:23.026Z,99.90
2019-04-27T00:31:03.174Z,99.90
2019-04-27T00:33:41.085Z,99.90
2019-04-27T00:36:26.700Z,99.90
2019-04-27T00:39:11.576Z,99.90
2019-04-27T00:41:49.929Z,99.90
2019-04-27T00:44:28.155Z,99.90
2019-04-27T00:47:08.051Z,99.90
2019-04-27T00:49:47.526Z,99.90
2019-04-27T00:52:25.881Z,99.90
2019-04-27T00:55:04.361Z,99.90
2019-04-27T00:58:00.411Z,99.90
2019-04-27T01:00:59.022Z,99.90
2019-04-27T01:03:44.731Z,99.90
2019-04-27T01:06:23.423Z,99.90
2019-04-27T01:09:03.531Z,99.90
2019-04-27T01:11:43.459Z,99.90
2019-04-27T01:14:23.060Z,99.90
2019-04-27T01:17:01.771Z,99.90
2019-04-27T01:19:40.211Z,99.90
2019-04-27T01:22:18.847Z,99.90
2019-04-27T01:24:57.235Z,99.90
2019-04-27T01:27:51.923Z,99.90
2019-04-27T01:30:43.574Z,99.90
2019-04-27T01:33:21.690Z,99.90
2019-04-27T01:36:00.056Z,99.90
2019-04-27T01:38:39.249Z,99.90
2019-04-27T01:41:19.098Z,99.90
2019-04-27T01:43:57.010Z,99.90
2019-04-27T01:46:35.397Z,99.90
2019-04-27T01:49:14.071Z,99.90
2019-04-27T01:51:53.281Z,99.90
2019-04-27T01:54:32.230Z,99.90
2019-04-27T01:57:10.552Z,99.90
2019-04-27T01:59:49.014Z,99.90
2019-04-27T02:02:39.416Z,99.90
2019-04-27T02:05:34.184Z,99.90
2019-04-27T02:08:12.365Z,99.90
2019-04-27T02:10:50.685Z,99.90
2019-04-27T02:13:29.484Z,99.90
2019-04-27T02:16:09.025Z,99.90
2019-04-27T02:18:48.820Z,99.90
2019-04-27T02:21:44.435Z,99.90
2019-04-27T02:24:22.951Z,99.90
2019-04-27T02:27:01.440Z,99.90
2019-04-27T02:29:59.120Z,99.90
2019-04-27T02:32:43.747Z,99.90
2019-04-27T02:35:21.895Z,99.90
2019-04-27T02:38:00.528Z,99.90
2019-04-27T02:41:09.988Z,99.90
2019-04-27T02:44:06.003Z,99.90
2019-04-27T02:46:44.613Z,99.90
2019-04-27T02:49:22.600Z,99.90
2019-04-27T02:52:19.974Z,99.90
2019-04-27T02:54:59.337Z,99.90
2019-04-27T02:57:39.819Z,99.90
2019-04-27T03:00:17.409Z,99.90
2019-04-27T03:03:02.195Z,99.90
2019-04-27T03:05:39.891Z,99.90
2019-04-27T03:08:20.041Z,99.90
2019-04-27T03:10:57.600Z,99.90
2019-04-27T03:13:45.332Z,99.90
2019-04-27T03:16:30.998Z,99.90
2019-04-27T03:19:32.792Z,99.90
2019-04-27T03:22:41.498Z,99.90
2019-04-27T03:25:39.884Z,99.90
2019-04-27T03:28:20.081Z,99.90
2019-04-27T03:31:02.460Z,99.90
2019-04-27T03:33:42.626Z,99.90
2019-04-27T03:36:21.492Z,99.90
2019-04-27T03:38:59.901Z,99.90
2019-04-27T03:41:37.252Z,99.90
2019-04-27T03:44:15.870Z,99.90
2019-04-27T03:46:54.172Z,99.90
2019-04-27T03:49:37.910Z,99.90
2019-04-27T03:52:42.644Z,99.90
2019-04-27T03:55:24.432Z,99.90
2019-04-27T03:58:33.497Z,99.90
2019-04-27T04:01:11.830Z,99.90
2019-04-27T04:03:50.325Z,99.90
2019-04-27T04:06:29.678Z,99.90
2019-04-27T04:09:10.350Z,99.90
2019-04-27T04:11:55.667Z,99.90
2019-04-27T04:14:36.818Z,99.90
2019-04-27T04:17:16.256Z,99.90
2019-04-27T04:20:00.281Z,99.90
2019-04-27T04:22:34.768Z,99.90
2019-04-27T04:25:13.095Z,99.90
2019-04-27T04:27:51.525Z,99.90
2019-04-27T04:30:30.456Z,99.90
2019-04-27T04:33:10.163Z,99.90
2019-04-27T04:35:49.704Z,99.70
2019-04-27T04:38:30.196Z,99.80
2019-04-27T04:41:10.644Z,99.70
2019-04-27T04:43:59.906Z,99.40
2019-04-27T04:46:44.362Z,99.70
2019-04-27T04:49:22.714Z,99.40
2019-04-27T04:52:01.062Z,99.30
2019-04-27T04:54:40.874Z,98.60
2019-04-27T04:57:21.814Z,99.50
2019-04-27T04:59:59.335Z,98.70
2019-04-27T05:02:39.438Z,98.90
2019-04-27T05:05:17.164Z,99.60
2019-04-27T05:07:55.299Z,99.40
2019-04-27T05:10:33.672Z,99.00
2019-04-27T05:13:11.699Z,99.40
2019-04-27T05:15:49.719Z,99.40
2019-04-27T05:18:29.342Z,99.00
2019-04-27T05:21:13.472Z,99.10
2019-04-27T05:23:52.287Z,98.80
2019-04-27T05:26:30.886Z,98.90
2019-04-27T05:29:09.340Z,98.00
2019-04-27T05:31:49.017Z,98.00
2019-04-27T05:34:29.259Z,97.40
2019-04-27T05:37:08.891Z,97.40
2019-04-27T05:39:48.638Z,97.60
2019-04-27T05:42:28.560Z,97.00
2019-04-27T05:45:20.016Z,97.50
2019-04-27T05:48:04.690Z,97.50
2019-04-27T05:50:45.897Z,97.50
2019-04-27T05:53:23.212Z,97.90
2019-04-27T05:56:01.252Z,96.90
2019-04-27T05:58:40.222Z,95.70
2019-04-27T06:01:19.559Z,95.60
2019-04-27T06:03:58.858Z,95.70
2019-04-27T06:06:37.215Z,95.50
2019-04-27T06:09:15.273Z,95.20
2019-04-27T06:11:53.266Z,95.50
2019-04-27T06:14:31.609Z,95.40
2019-04-27T06:17:10.585Z,95.20
2019-04-27T06:19:49.301Z,95.40
2019-04-27T06:22:29.257Z,95.30
2019-04-27T06:25:11.308Z,94.70
2019-04-27T06:27:47.223Z,94.70
2019-04-27T06:30:25.630Z,95.10
2019-04-27T06:33:03.369Z,94.20
2019-04-27T06:35:41.669Z,94.80
2019-04-27T06:38:19.891Z,94.40
2019-04-27T06:40:59.071Z,93.70
2019-04-27T06:43:38.256Z,93.50
2019-04-27T06:46:16.224Z,93.30
2019-04-27T06:48:54.546Z,93.30
2019-04-27T06:51:33.018Z,94.00
2019-04-27T06:54:11.407Z,93.80
2019-04-27T06:56:49.364Z,93.40
2019-04-27T06:59:35.176Z,93.40
2019-04-27T07:02:13.474Z,93.50
2019-04-27T07:04:51.693Z,93.10
2019-04-27T07:07:30.120Z,93.60
2019-04-27T07:10:09.009Z,93.10
2019-04-27T07:12:48.965Z,92.80
2019-04-27T07:15:26.320Z,92.90
2019-04-27T07:18:04.624Z,92.90
2019-04-27T07:20:43.296Z,92.60
2019-04-27T07:23:21.520Z,92.70
2019-04-27T07:26:01.724Z,92.50
2019-04-27T07:28:41.021Z,93.70
2019-04-27T07:31:19.393Z,93.60
2019-04-27T07:33:59.396Z,93.60
2019-04-27T07:36:39.022Z,93.00
2019-04-27T07:39:19.013Z,93.30
2019-04-27T07:41:58.602Z,93.00
2019-04-27T07:45:12.291Z,95.50
2019-04-27T07:47:51.102Z,94.40
2019-04-27T07:50:29.267Z,94.70
2019-04-27T07:53:08.662Z,94.80
2019-04-27T07:55:47.017Z,95.00
2019-04-27T07:58:25.312Z,93.40
2019-04-27T08:01:03.638Z,93.60
2019-04-27T08:03:42.001Z,94.50
2019-04-27T08:06:21.256Z,94.30
2019-04-27T08:08:59.697Z,94.00
2019-04-27T08:11:39.202Z,94.10
2019-04-27T08:14:18.615Z,94.00
2019-04-27T08:16:58.560Z,94.30
2019-04-27T08:19:36.463Z,94.10
2019-04-27T08:22:14.954Z,93.70
2019-04-27T08:24:53.760Z,93.40
2019-04-27T08:27:36.868Z,94.00
2019-04-27T08:30:48.888Z,94.20
2019-04-27T08:33:28.896Z,93.70
2019-04-27T08:36:08.897Z,93.40
2019-04-27T08:38:48.817Z,93.80
2019-04-27T08:41:26.853Z,92.90
2019-04-27T08:44:05.322Z,93.40
2019-04-27T08:46:44.142Z,93.20
2019-04-27T08:49:23.277Z,94.20
2019-04-27T08:52:01.984Z,94.10
2019-04-27T08:54:40.277Z,95.50
2019-04-27T08:57:18.922Z,94.80
2019-04-27T08:59:59.487Z,94.40
2019-04-27T09:02:44.056Z,94.20
2019-04-27T09:05:19.303Z,94.20
2019-04-27T09:08:18.921Z,94.50
2019-04-27T09:11:21.230Z,94.50
2019-04-27T09:14:23.479Z,93.20
2019-04-27T09:17:25.189Z,93.30
2019-04-27T09:20:24.658Z,92.90
2019-04-27T09:23:03.010Z,92.90
2019-04-27T09:25:41.602Z,93.60
2019-04-27T09:28:21.714Z,93.70
2019-04-27T09:30:59.515Z,94.20
2019-04-27T09:33:37.594Z,94.70
2019-04-27T09:36:16.583Z,94.80
2019-04-27T09:38:56.409Z,94.20
2019-04-27T09:41:36.532Z,94.20
2019-04-27T09:44:15.957Z,94.40
2019-04-27T09:46:55.912Z,94.00
2019-04-27T09:49:36.310Z,94.00
2019-04-27T09:52:24.429Z,93.80
2019-04-27T09:54:55.972Z,93.70
2019-04-27T09:57:34.294Z,93.40
2019-04-27T10:00:16.028Z,93.30
2019-04-27T10:02:56.390Z,93.50
2019-04-27T10:05:36.536Z,93.80
2019-04-27T10:08:14.536Z,93.70
2019-04-27T10:10:53.121Z,93.60
2019-04-27T10:13:31.100Z,94.00
2019-04-27T10:16:09.901Z,93.70
2019-04-27T10:18:47.967Z,94.00
2019-04-27T10:21:26.488Z,93.50
2019-04-27T10:24:06.564Z,93.30
2019-04-27T10:26:44.935Z,93.60
2019-04-27T10:29:23.462Z,93.50
2019-04-27T10:32:02.129Z,93.60
2019-04-27T10:34:40.648Z,93.60
2019-04-27T10:37:19.525Z,94.20
2019-04-27T10:39:58.090Z,93.80
2019-04-27T10:42:36.640Z,93.60
2019-04-27T10:45:16.471Z,93.60
2019-04-27T10:47:56.299Z,93.70
2019-04-27T10:50:36.438Z,93.80
2019-04-27T10:53:16.475Z,93.90
2019-04-27T10:55:56.423Z,94.00
2019-04-27T10:58:35.554Z,94.10
2019-04-27T11:01:15.584Z,94.10
2019-04-27T11:04:11.774Z,94.20
2019-04-27T11:06:53.855Z,94.30
2019-04-27T11:09:32.109Z,94.60
2019-04-27T11:12:10.524Z,94.80
2019-04-27T11:14:48.982Z,94.90
2019-04-27T11:17:27.309Z,95.00
2019-04-27T11:20:05.348Z,95.00
2019-04-27T11:22:43.712Z,95.30
2019-04-27T11:25:22.024Z,95.20
2019-04-27T11:28:00.118Z,95.20
2019-04-27T11:30:38.627Z,95.70
2019-04-27T11:33:16.891Z,95.30
2019-04-27T11:36:14.852Z,95.30
2019-04-27T11:38:53.072Z,96.30
2019-04-27T11:41:31.435Z,97.00
2019-04-27T11:44:10.006Z,96.70
2019-04-27T11:46:48.262Z,98.20
2019-04-27T11:49:26.595Z,97.40
2019-04-27T11:52:05.830Z,96.70
2019-04-27T11:54:45.662Z,96.20
2019-04-27T11:57:24.590Z,95.90
2019-04-27T12:00:02.841Z,95.90
2019-04-27T12:02:41.517Z,96.20
2019-04-27T12:05:19.529Z,96.20
2019-04-27T12:07:58.909Z,96.50
2019-04-27T12:10:37.160Z,96.60
2019-04-27T12:13:15.930Z,96.80
2019-04-27T12:15:54.357Z,96.80
2019-04-27T12:18:32.879Z,97.00
2019-04-27T12:21:10.960Z,97.20
2019-04-27T12:23:48.892Z,97.30
2019-04-27T12:26:47.743Z,97.30
2019-04-27T12:29:28.580Z,97.30
2019-04-27T12:32:07.138Z,97.30
2019-04-27T12:34:46.492Z,97.30
2019-04-27T12:37:26.699Z,97.10
2019-04-27T12:40:05.913Z,96.90
2019-04-27T12:42:44.149Z,96.90
2019-04-27T12:45:22.345Z,96.80
2019-04-27T12:48:00.474Z,96.80
2019-04-27T12:50:38.786Z,96.80
2019-04-27T12:53:47.725Z,96.60
2019-04-27T12:56:27.857Z,96.40
2019-04-27T12:59:21.416Z,96.40
2019-04-27T13:01:59.793Z,96.20
2019-04-27T13:04:38.462Z,96.10
2019-04-27T13:07:16.718Z,96.00
2019-04-27T13:09:56.393Z,95.80
2019-04-27T13:12:35.800Z,96.00
2019-04-27T13:15:15.445Z,96.00
2019-04-27T13:17:55.535Z,95.90
2019-04-27T13:20:33.818Z,95.80
2019-04-27T13:23:12.385Z,95.70
2019-04-27T13:25:50.622Z,95.70
2019-04-27T13:28:29.164Z,95.90
2019-04-27T13:31:07.420Z,95.90
2019-04-27T13:33:46.535Z,95.80
2019-04-27T13:36:26.622Z,95.90
2019-04-27T13:39:07.162Z,96.00
2019-04-27T13:41:46.621Z,96.00
2019-04-27T13:44:26.232Z,96.10
2019-04-27T13:47:18.712Z,96.30
2019-04-27T13:50:13.107Z,96.30
2019-04-27T13:52:51.464Z,96.10
2019-04-27T13:55:29.701Z,96.00
2019-04-27T13:58:07.919Z,96.10
2019-04-27T14:00:46.465Z,95.90
2019-04-27T14:03:25.238Z,96.00
2019-04-27T14:06:03.620Z,95.90
2019-04-27T14:08:41.847Z,95.90
2019-04-27T14:11:20.034Z,96.00
2019-04-27T14:13:58.587Z,95.70
2019-04-27T14:16:36.913Z,95.80
2019-04-27T14:19:15.107Z,96.50
2019-04-27T14:21:53.579Z,96.70
2019-04-27T14:24:44.744Z,97.50
2019-04-27T14:27:23.889Z,98.50
2019-04-27T14:30:02.054Z,98.50
2019-04-27T14:32:42.292Z,98.90
2019-04-27T14:35:20.272Z,98.90
2019-04-27T14:37:58.631Z,98.10
2019-04-27T14:40:37.081Z,98.20
2019-04-27T14:43:15.438Z,98.40
2019-04-27T14:45:53.932Z,98.50
2019-04-27T14:48:32.167Z,98.60
2019-04-27T14:51:10.158Z,98.90
2019-04-27T14:53:48.959Z,98.80
2019-04-27T14:56:28.252Z,97.40
2019-04-27T14:59:07.009Z,98.10
2019-04-27T15:01:45.788Z,98.10
2019-04-27T15:04:24.004Z,98.60
2019-04-27T15:07:03.660Z,98.70
2019-04-27T15:09:43.006Z,99.10
2019-04-27T15:12:24.497Z,99.00
2019-04-27T15:15:01.461Z,98.40
2019-04-27T15:17:40.736Z,98.30
2019-04-27T15:20:27.229Z,98.50
2019-04-27T15:23:04.476Z,99.20
2019-04-27T15:25:46.845Z,99.60
2019-04-27T15:28:25.748Z,98.60
2019-04-27T15:31:26.168Z,98.80
2019-04-27T15:34:11.938Z,98.60
2019-04-27T15:37:29.781Z,99.30
2019-04-27T15:40:40.080Z,98.90
2019-04-27T15:43:39.249Z,99.10
2019-04-27T15:46:18.462Z,98.60
2019-04-27T15:48:58.855Z,98.90
2019-04-27T15:51:38.280Z,99.10
2019-04-27T15:54:16.962Z,99.50
2019-04-27T15:56:55.232Z,99.20
2019-04-27T15:59:37.777Z,99.90
2019-04-27T16:02:15.533Z,99.90
2019-04-27T16:04:53.542Z,99.90
2019-04-27T16:07:32.256Z,99.90
2019-04-27T16:10:10.954Z,99.90
2019-04-27T16:13:05.984Z,99.90
2019-04-27T16:15:29.965Z,99.90
2019-04-27T16:18:08.804Z,99.90
2019-04-27T16:20:48.518Z,99.90
2019-04-27T16:23:28.204Z,99.90
2019-04-27T16:26:10.935Z,99.90
2019-04-27T16:28:49.786Z,99.90
2019-04-27T16:31:31.470Z,99.90
2019-04-27T16:34:08.226Z,99.90
2019-04-27T16:36:46.219Z,99.90
2019-04-27T16:39:24.789Z,99.90
2019-04-27T16:42:03.442Z,99.90
2019-04-27T16:44:44.258Z,99.90
2019-04-27T16:47:24.404Z,99.90
2019-04-27T16:50:01.480Z,99.90
2019-04-27T16:52:41.070Z,99.90
2019-04-27T16:55:20.884Z,99.90
2019-04-27T16:57:59.985Z,99.90
2019-04-27T17:00:40.952Z,99.90
2019-04-27T17:03:19.431Z,99.90
2019-04-27T17:05:58.170Z,99.90
2019-04-27T17:08:38.838Z,99.90
2019-04-27T17:11:16.054Z,99.90
2019-04-27T17:13:59.419Z,99.90
2019-04-27T17:16:58.559Z,99.90
2019-04-27T17:19:44.885Z,99.90
2019-04-27T17:22:24.390Z,99.90
2019-04-27T17:25:02.949Z,99.90
2019-04-27T17:28:04.122Z,99.90
2019-04-27T17:30:45.085Z,99.90
2019-04-27T17:33:32.636Z,99.90
2019-04-27T17:36:12.050Z,99.90
2019-04-27T17:38:51.144Z,99.90
2019-04-27T17:41:29.661Z,99.90
2019-04-27T17:44:08.541Z,99.90
2019-04-27T17:46:50.951Z,99.90
2019-04-27T17:49:28.105Z,99.90
2019-04-27T17:52:06.311Z,99.90
2019-04-27T17:54:47.484Z,99.90
2019-04-27T17:57:26.473Z,99.90
2019-04-27T18:00:04.412Z,99.90
2019-04-27T18:02:43.905Z,99.90
2019-04-27T18:05:22.207Z,99.90
2019-04-27T18:08:00.521Z,99.90
2019-04-27T18:10:39.094Z,99.90
2019-04-27T18:13:25.212Z,99.90
2019-04-27T18:15:58.976Z,99.90
2019-04-27T18:19:07.679Z,99.90
2019-04-27T18:21:41.191Z,99.90
2019-04-27T18:24:25.034Z,99.90
2019-04-27T18:27:14.590Z,99.90
2019-04-27T18:29:53.274Z,99.90
2019-04-27T18:32:31.619Z,99.90
2019-04-27T18:35:10.112Z,99.90
2019-04-27T18:37:48.612Z,99.90
2019-04-27T18:40:32.226Z,99.90
2019-04-27T18:43:12.055Z,99.90
2019-04-27T18:45:46.488Z,99.90
2019-04-27T18:48:44.897Z,99.90
2019-04-27T18:51:57.865Z,99.90
2019-04-27T18:54:37.488Z,99.90
2019-04-27T18:57:15.150Z,99.90
2019-04-27T18:59:52.293Z,99.90
2019-04-27T19:02:30.542Z,99.90
2019-04-27T19:05:09.195Z,99.90
2019-04-27T19:07:48.432Z,99.90
2019-04-27T19:10:28.185Z,99.90
2019-04-27T19:13:08.663Z,99.90
2019-04-27T19:15:46.516Z,99.90
2019-04-27T19:18:25.058Z,99.90
2019-04-27T19:21:03.543Z,99.90
2019-04-27T19:23:41.921Z,99.90
2019-04-27T19:26:30.395Z,99.90
2019-04-27T19:29:18.914Z,99.90
2019-04-27T19:32:00.570Z,99.90
2019-04-27T19:34:38.988Z,99.90
2019-04-27T19:37:18.377Z,99.90
2019-04-27T19:39:58.243Z,99.90
2019-04-27T19:42:38.218Z,99.90
2019-04-27T19:45:16.333Z,99.90
2019-04-27T19:47:54.774Z,99.90
2019-04-27T19:50:33.330Z,99.90
2019-04-27T19:53:11.671Z,99.90
2019-04-27T19:56:04.900Z,99.90
2019-04-27T19:58:48.763Z,99.90
2019-04-27T20:01:31.775Z,99.90
2019-04-27T20:04:17.063Z,99.90
2019-04-27T20:06:55.532Z,99.90
2019-04-27T20:09:51.645Z,99.90
2019-04-27T20:12:31.322Z,99.90
2019-04-27T20:15:10.559Z,99.90
2019-04-27T20:17:50.757Z,99.90
2019-04-27T20:20:28.832Z,99.90
2019-04-27T20:23:07.415Z,99.90
2019-04-27T20:25:45.669Z,99.90
2019-04-27T20:28:24.031Z,99.90
2019-04-27T20:31:02.814Z,99.90
2019-04-27T20:33:41.605Z,99.90
2019-04-27T20:36:21.380Z,99.90
2019-04-27T20:39:01.256Z,99.90
2019-04-27T20:41:41.125Z,99.90
2019-04-27T20:44:21.080Z,99.90
2019-04-27T20:47:01.248Z,99.90
2019-04-27T20:49:39.577Z,99.90
2019-04-27T20:52:30.773Z,99.90
2019-04-27T20:55:11.255Z,99.90
2019-04-27T20:57:59.626Z,99.90
2019-04-27T21:00:29.669Z,99.90
2019-04-27T21:03:19.920Z,99.90
2019-04-27T21:06:06.525Z,99.90
2019-04-27T21:08:45.394Z,99.90
2019-04-27T21:11:23.992Z,99.90
2019-04-27T21:14:02.464Z,99.90
2019-04-27T21:16:41.306Z,99.90
2019-04-27T21:19:21.031Z,99.90
2019-04-27T21:22:01.109Z,99.90
2019-04-27T21:24:41.223Z,99.90
2019-04-27T21:27:19.129Z,99.90
2019-04-27T21:29:57.467Z,99.90
2019-04-27T21:32:35.857Z,99.90
2019-04-27T21:35:14.858Z,99.90
2019-04-27T21:37:53.175Z,99.90
2019-04-27T21:40:31.827Z,99.90
2019-04-27T21:43:11.293Z,99.90
2019-04-27T21:45:51.079Z,99.90
2019-04-27T21:48:31.179Z,99.90
2019-04-27T21:51:11.670Z,99.90
2019-04-27T21:54:13.470Z,99.90
2019-04-27T21:56:51.806Z,99.90
2019-04-27T21:59:30.193Z,99.90
2019-04-27T22:02:09.664Z,99.90
2019-04-27T22:04:47.928Z,99.90
2019-04-27T22:07:26.511Z,99.90
2019-04-27T22:10:04.962Z,99.90
2019-04-27T22:12:44.447Z,99.90
2019-04-27T22:15:22.833Z,99.90
2019-04-27T22:18:02.466Z,99.90
2019-04-27T22:20:42.667Z,99.90
2019-04-27T22:23:36.386Z,99.90
2019-04-27T22:26:24.069Z,99.90
2019-04-27T22:29:02.593Z,99.90
2019-04-27T22:31:41.558Z,99.90
2019-04-27T22:34:21.008Z,99.90
2019-04-27T22:37:00.960Z,99.90
2019-04-27T22:40:11.933Z,99.90
2019-04-27T22:43:20.357Z,99.90
2019-04-27T22:46:01.225Z,99.90
2019-04-27T22:48:41.464Z,99.90
2019-04-27T22:51:19.241Z,99.90
2019-04-27T22:53:57.968Z,99.90
2019-04-27T22:56:36.320Z,99.90
2019-04-27T22:59:25.874Z,99.90
2019-04-27T23:02:21.663Z,99.90
2019-04-27T23:05:02.785Z,99.90
2019-04-27T23:07:41.905Z,99.90
2019-04-27T23:10:21.353Z,99.90
2019-04-27T23:13:01.008Z,99.90
2019-04-27T23:15:45.087Z,99.90
2019-04-27T23:18:23.686Z,99.90
2019-04-27T23:21:02.072Z,99.90
2019-04-27T23:23:41.325Z,99.90
2019-04-27T23:26:21.127Z,99.90
2019-04-27T23:29:11.053Z,99.90
2019-04-27T23:31:48.082Z,99.90
2019-04-27T23:34:26.467Z,99.90
2019-04-27T23:37:04.790Z,99.90
2019-04-27T23:39:43.187Z,99.90
2019-04-27T23:42:22.418Z,99.90
2019-04-27T23:45:00.715Z,99.90
2019-04-27T23:47:39.203Z,99.90
2019-04-27T23:50:18.130Z,99.90
2019-04-27T23:53:11.731Z,99.90
2019-04-27T23:55:49.354Z,99.90
2019-04-27T23:58:27.869Z,99.90
